WJ3105 SACO-SABE
Flight info
| Callsign | WJ3105 |
|---|---|
| Flight time | 1h 2m |
| Altitude | 39000 |
| Route | DCT UTRAX UW24 SNT SNT9R |
| Aircraft | A20N/M-SDE2E3FGHIRWXY/LB1 |
Departure
| Time | 2026-05-03 20:59 |
|---|---|
| Airport | Ingeniero Aeronáutico Ambrosio L.V. Taravella International Airport (SACO) |
Arrival
| Time | 2026-05-03 22:02 |
|---|---|
| Airport | Aeroparque Jorge Newbery (SABE) |
| Time | Latitude | Longitude | Altitude | Speed | Heading |
|---|---|---|---|---|---|
| 2026-05-03 20:22 | -31.31488 | -64.21184 | 1622 ft | 0 kts | 262° |
| 2026-05-03 20:43 | -31.31487 | -64.21180 | 1617 ft | 1 kts | 262° |
| 2026-05-03 20:43 | -31.31486 | -64.21171 | 1615 ft | 1 kts | 262° |
| 2026-05-03 20:43 | -31.31485 | -64.21160 | 1612 ft | 2 kts | 262° |
| 2026-05-03 20:44 | -31.31482 | -64.21143 | 1614 ft | 2 kts | 253° |
| 2026-05-03 20:44 | -31.31477 | -64.21126 | 1617 ft | 3 kts | 236° |
| 2026-05-03 20:44 | -31.31462 | -64.21109 | 1616 ft | 2 kts | 201° |
| 2026-05-03 20:44 | -31.31447 | -64.21105 | 1620 ft | 2 kts | 176° |
| 2026-05-03 20:45 | -31.31427 | -64.21106 | 1617 ft | 3 kts | 176° |
| 2026-05-03 20:45 | -31.31410 | -64.21107 | 1620 ft | 0 kts | 183° |
| 2026-05-03 20:49 | -31.31411 | -64.21107 | 1620 ft | 0 kts | 180° |
| 2026-05-03 20:49 | -31.31425 | -64.21104 | 1617 ft | 5 kts | 172° |
| 2026-05-03 20:50 | -31.31482 | -64.21085 | 1617 ft | 12 kts | 165° |
| 2026-05-03 20:50 | -31.31580 | -64.21100 | 1612 ft | 16 kts | 194° |
| 2026-05-03 20:50 | -31.31686 | -64.21102 | 1616 ft | 16 kts | 177° |
| 2026-05-03 20:50 | -31.31772 | -64.21046 | 1612 ft | 15 kts | 142° |
| 2026-05-03 20:51 | -31.31879 | -64.21028 | 1619 ft | 16 kts | 180° |
| 2026-05-03 20:51 | -31.32002 | -64.21027 | 1617 ft | 19 kts | 179° |
| 2026-05-03 20:51 | -31.32143 | -64.21024 | 1614 ft | 21 kts | 179° |
| 2026-05-03 20:51 | -31.32227 | -64.21022 | 1618 ft | 10 kts | 179° |
| 2026-05-03 20:52 | -31.32303 | -64.21021 | 1619 ft | 12 kts | 179° |
| 2026-05-03 20:52 | -31.32366 | -64.21019 | 1618 ft | 0 kts | 174° |
| 2026-05-03 20:54 | -31.32370 | -64.21018 | 1619 ft | 2 kts | 172° |
| 2026-05-03 20:54 | -31.32393 | -64.20837 | 1612 ft | 22 kts | 46° |
| 2026-05-03 20:54 | -31.32279 | -64.20706 | 1617 ft | 10 kts | 46° |
| 2026-05-03 20:55 | -31.32266 | -64.20690 | 1615 ft | 0 kts | 45° |
| 2026-05-03 20:58 | -31.32184 | -64.20596 | 1622 ft | 50 kts | 44° |
| 2026-05-03 20:58 | -31.31762 | -64.20123 | 1623 ft | 115 kts | 44° |
| 2026-05-03 20:59 | -31.31070 | -64.19344 | 1812 ft | 148 kts | 45° |
| 2026-05-03 20:59 | -31.30351 | -64.18424 | 2407 ft | 161 kts | 47° |
| 2026-05-03 20:59 | -31.29586 | -64.17395 | 3028 ft | 173 kts | 45° |
| 2026-05-03 20:59 | -31.28741 | -64.16340 | 3500 ft | 190 kts | 41° |
| 2026-05-03 21:00 | -31.27713 | -64.15174 | 3779 ft | 223 kts | 39° |
| 2026-05-03 21:00 | -31.27318 | -64.14752 | 3882 ft | 234 kts | 38° |
| 2026-05-03 21:00 | -31.25102 | -64.12409 | 4560 ft | 276 kts | 38° |
| 2026-05-03 21:00 | -31.23802 | -64.10829 | 4881 ft | 266 kts | 50° |
| 2026-05-03 21:01 | -31.23035 | -64.08863 | 4981 ft | 272 kts | 72° |
| 2026-05-03 21:01 | -31.22964 | -64.06600 | 5002 ft | 286 kts | 96° |
| 2026-05-03 21:01 | -31.23702 | -64.04429 | 5001 ft | 294 kts | 121° |
| 2026-05-03 21:01 | -31.25121 | -64.02697 | 5004 ft | 298 kts | 137° |
| 2026-05-03 21:02 | -31.26691 | -64.01107 | 5001 ft | 298 kts | 137° |
| 2026-05-03 21:02 | -31.28259 | -63.99512 | 5000 ft | 300 kts | 136° |
| 2026-05-03 21:02 | -31.29721 | -63.97801 | 4994 ft | 295 kts | 121° |
| 2026-05-03 21:02 | -31.30709 | -63.95700 | 5001 ft | 295 kts | 113° |
| 2026-05-03 21:03 | -31.31636 | -63.93560 | 5000 ft | 295 kts | 113° |
| 2026-05-03 21:03 | -31.32562 | -63.91426 | 4994 ft | 294 kts | 113° |
| 2026-05-03 21:03 | -31.33489 | -63.89292 | 5003 ft | 294 kts | 112° |
| 2026-05-03 21:03 | -31.34416 | -63.87167 | 5001 ft | 293 kts | 113° |
| 2026-05-03 21:04 | -31.35344 | -63.85045 | 5006 ft | 293 kts | 112° |
| 2026-05-03 21:04 | -31.36274 | -63.82927 | 5011 ft | 293 kts | 113° |
| 2026-05-03 21:04 | -31.37234 | -63.80815 | 4995 ft | 296 kts | 121° |
| 2026-05-03 21:04 | -31.38674 | -63.79084 | 5006 ft | 300 kts | 141° |
| 2026-05-03 21:05 | -31.40394 | -63.77692 | 5005 ft | 301 kts | 145° |
| 2026-05-03 21:05 | -31.41927 | -63.76079 | 5008 ft | 296 kts | 121° |
| 2026-05-03 21:05 | -31.42779 | -63.73937 | 5008 ft | 289 kts | 103° |
| 2026-05-03 21:05 | -31.43403 | -63.71704 | 5009 ft | 288 kts | 103° |
| 2026-05-03 21:06 | -31.44027 | -63.69476 | 5006 ft | 288 kts | 103° |
| 2026-05-03 21:06 | -31.44661 | -63.67245 | 5043 ft | 290 kts | 105° |
| 2026-05-03 21:06 | -31.45766 | -63.65232 | 5418 ft | 302 kts | 134° |
| 2026-05-03 21:06 | -31.47507 | -63.63844 | 6410 ft | 303 kts | 151° |
| 2026-05-03 21:07 | -31.49395 | -63.62745 | 7402 ft | 302 kts | 154° |
| 2026-05-03 21:07 | -31.51295 | -63.61661 | 8299 ft | 305 kts | 154° |
| 2026-05-03 21:07 | -31.53182 | -63.60513 | 9213 ft | 306 kts | 153° |
| 2026-05-03 21:07 | -31.55035 | -63.59315 | 10200 ft | 302 kts | 153° |
| 2026-05-03 21:08 | -31.56908 | -63.58066 | 10666 ft | 320 kts | 152° |
| 2026-05-03 21:08 | -31.58907 | -63.56717 | 10895 ft | 343 kts | 152° |
| 2026-05-03 21:08 | -31.61024 | -63.55278 | 11275 ft | 357 kts | 152° |
| 2026-05-03 21:08 | -31.63184 | -63.53804 | 12006 ft | 360 kts | 152° |
| 2026-05-03 21:09 | -31.65359 | -63.52320 | 12754 ft | 363 kts | 152° |
| 2026-05-03 21:09 | -31.67553 | -63.50824 | 13506 ft | 366 kts | 152° |
| 2026-05-03 21:09 | -31.69738 | -63.49337 | 14162 ft | 370 kts | 153° |
| 2026-05-03 21:09 | -31.71979 | -63.47811 | 14803 ft | 374 kts | 153° |
| 2026-05-03 21:10 | -31.74235 | -63.46274 | 15452 ft | 377 kts | 153° |
| 2026-05-03 21:10 | -31.76517 | -63.44718 | 16093 ft | 381 kts | 153° |
| 2026-05-03 21:10 | -31.78821 | -63.43147 | 16710 ft | 385 kts | 153° |
| 2026-05-03 21:10 | -31.81145 | -63.41561 | 17339 ft | 388 kts | 154° |
| 2026-05-03 21:11 | -31.83491 | -63.39958 | 17933 ft | 392 kts | 154° |
| 2026-05-03 21:11 | -31.85862 | -63.38331 | 18505 ft | 397 kts | 153° |
| 2026-05-03 21:11 | -31.88124 | -63.36427 | 19081 ft | 404 kts | 144° |
| 2026-05-03 21:11 | -31.90162 | -63.34115 | 19621 ft | 411 kts | 136° |
| 2026-05-03 21:12 | -31.91976 | -63.31473 | 20171 ft | 417 kts | 132° |
| 2026-05-03 21:12 | -31.93778 | -63.28783 | 20717 ft | 420 kts | 133° |
| 2026-05-03 21:12 | -31.95601 | -63.26076 | 21265 ft | 423 kts | 133° |
| 2026-05-03 21:12 | -31.97438 | -63.23351 | 21806 ft | 427 kts | 133° |
| 2026-05-03 21:13 | -31.99293 | -63.20598 | 22362 ft | 430 kts | 133° |
| 2026-05-03 21:13 | -32.01161 | -63.17821 | 22907 ft | 434 kts | 133° |
| 2026-05-03 21:13 | -32.03044 | -63.15020 | 23454 ft | 437 kts | 133° |
| 2026-05-03 21:13 | -32.04939 | -63.12197 | 23841 ft | 441 kts | 133° |
| 2026-05-03 21:14 | -32.06843 | -63.09356 | 23970 ft | 442 kts | 133° |
| 2026-05-03 21:14 | -32.08747 | -63.06513 | 24000 ft | 442 kts | 133° |
| 2026-05-03 21:14 | -32.10011 | -63.04625 | 24003 ft | 442 kts | 134° |
| 2026-05-03 21:14 | -32.12535 | -63.00851 | 24001 ft | 442 kts | 133° |
| 2026-05-03 21:15 | -32.14435 | -62.97999 | 24006 ft | 442 kts | 133° |
| 2026-05-03 21:15 | -32.16327 | -62.95155 | 24007 ft | 442 kts | 133° |
| 2026-05-03 21:15 | -32.18238 | -62.92284 | 24178 ft | 446 kts | 134° |
| 2026-05-03 21:15 | -32.20162 | -62.89410 | 24721 ft | 446 kts | 134° |
| 2026-05-03 21:16 | -32.22091 | -62.86532 | 25207 ft | 449 kts | 134° |
| 2026-05-03 21:16 | -32.24032 | -62.83629 | 25634 ft | 452 kts | 134° |
| 2026-05-03 21:16 | -32.25326 | -62.81691 | 25926 ft | 454 kts | 134° |
| 2026-05-03 21:16 | -32.27942 | -62.77762 | 26508 ft | 457 kts | 134° |
| 2026-05-03 21:17 | -32.29247 | -62.75799 | 26782 ft | 459 kts | 134° |
| 2026-05-03 21:17 | -32.31225 | -62.72824 | 27213 ft | 461 kts | 134° |
| 2026-05-03 21:17 | -32.33211 | -62.69833 | 27619 ft | 464 kts | 134° |
| 2026-05-03 21:17 | -32.35208 | -62.66824 | 28013 ft | 467 kts | 134° |
| 2026-05-03 21:18 | -32.37217 | -62.63796 | 28398 ft | 469 kts | 134° |
| 2026-05-03 21:18 | -32.39236 | -62.60749 | 28772 ft | 471 kts | 134° |
| 2026-05-03 21:18 | -32.41264 | -62.57685 | 29139 ft | 474 kts | 134° |
| 2026-05-03 21:18 | -32.43300 | -62.54607 | 29492 ft | 476 kts | 134° |
| 2026-05-03 21:19 | -32.45345 | -62.51512 | 29860 ft | 478 kts | 134° |
| 2026-05-03 21:19 | -32.47398 | -62.48402 | 30183 ft | 480 kts | 134° |
| 2026-05-03 21:19 | -32.49459 | -62.45277 | 30488 ft | 483 kts | 134° |
| 2026-05-03 21:19 | -32.51530 | -62.42135 | 30792 ft | 485 kts | 134° |
| 2026-05-03 21:20 | -32.53609 | -62.38978 | 31096 ft | 487 kts | 134° |
| 2026-05-03 21:20 | -32.55686 | -62.35821 | 31467 ft | 487 kts | 134° |
| 2026-05-03 21:20 | -32.57766 | -62.32654 | 31871 ft | 486 kts | 134° |
| 2026-05-03 21:20 | -32.59837 | -62.29499 | 32277 ft | 485 kts | 134° |
| 2026-05-03 21:21 | -32.61906 | -62.26344 | 32671 ft | 484 kts | 134° |
| 2026-05-03 21:21 | -32.63968 | -62.23198 | 32947 ft | 483 kts | 134° |
| 2026-05-03 21:21 | -32.68071 | -62.16919 | 33003 ft | 480 kts | 134° |
| 2026-05-03 21:22 | -32.71934 | -62.10400 | 33004 ft | 483 kts | 131° |
| 2026-05-03 21:22 | -32.75782 | -62.03854 | 33012 ft | 483 kts | 131° |
| 2026-05-03 21:23 | -32.79607 | -61.97299 | 33014 ft | 483 kts | 131° |
| 2026-05-03 21:23 | -32.83405 | -61.90775 | 33014 ft | 483 kts | 131° |
| 2026-05-03 21:24 | -32.87222 | -61.84206 | 33017 ft | 483 kts | 131° |
| 2026-05-03 21:24 | -32.91036 | -61.77633 | 33019 ft | 483 kts | 131° |
| 2026-05-03 21:25 | -32.94854 | -61.71048 | 33016 ft | 483 kts | 131° |
| 2026-05-03 21:25 | -32.98666 | -61.64461 | 33019 ft | 483 kts | 131° |
| 2026-05-03 21:26 | -33.02481 | -61.57857 | 33018 ft | 483 kts | 131° |
| 2026-05-03 21:26 | -33.06282 | -61.51265 | 33020 ft | 483 kts | 131° |
| 2026-05-03 21:27 | -33.10056 | -61.44708 | 33020 ft | 483 kts | 131° |
| 2026-05-03 21:27 | -33.13854 | -61.38099 | 33023 ft | 482 kts | 131° |
| 2026-05-03 21:28 | -33.17644 | -61.31490 | 33022 ft | 482 kts | 131° |
| 2026-05-03 21:28 | -33.21427 | -61.24881 | 33020 ft | 482 kts | 131° |
| 2026-05-03 21:29 | -33.25209 | -61.18263 | 33021 ft | 482 kts | 131° |
| 2026-05-03 21:29 | -33.28991 | -61.11634 | 33027 ft | 482 kts | 131° |
| 2026-05-03 21:30 | -33.32753 | -61.04992 | 33027 ft | 482 kts | 130° |
| 2026-05-03 21:30 | -33.36508 | -60.98342 | 33027 ft | 482 kts | 130° |
| 2026-05-03 21:31 | -33.40256 | -60.91678 | 33031 ft | 482 kts | 130° |
| 2026-05-03 21:31 | -33.43976 | -60.85049 | 33034 ft | 482 kts | 130° |
| 2026-05-03 21:32 | -33.47716 | -60.78375 | 33033 ft | 482 kts | 130° |
| 2026-05-03 21:32 | -33.51451 | -60.71698 | 33034 ft | 482 kts | 130° |
| 2026-05-03 21:33 | -33.55183 | -60.65014 | 33033 ft | 482 kts | 130° |
| 2026-05-03 21:33 | -33.58909 | -60.58328 | 33035 ft | 482 kts | 130° |
| 2026-05-03 21:34 | -33.62631 | -60.51638 | 33043 ft | 482 kts | 130° |
| 2026-05-03 21:34 | -33.66350 | -60.44941 | 33038 ft | 482 kts | 130° |
| 2026-05-03 21:35 | -33.70063 | -60.38241 | 33050 ft | 482 kts | 130° |
| 2026-05-03 21:35 | -33.73568 | -60.31906 | 33046 ft | 482 kts | 130° |
| 2026-05-03 21:36 | -33.77275 | -60.25197 | 32856 ft | 481 kts | 130° |
| 2026-05-03 21:36 | -33.79107 | -60.21882 | 32601 ft | 482 kts | 130° |
| 2026-05-03 21:36 | -33.80959 | -60.18524 | 32349 ft | 482 kts | 130° |
| 2026-05-03 21:37 | -33.82811 | -60.15161 | 32101 ft | 483 kts | 130° |
| 2026-05-03 21:37 | -33.84669 | -60.11788 | 31655 ft | 485 kts | 130° |
| 2026-05-03 21:37 | -33.86550 | -60.08415 | 30977 ft | 486 kts | 130° |
| 2026-05-03 21:37 | -33.88432 | -60.05060 | 30442 ft | 482 kts | 130° |
| 2026-05-03 21:38 | -33.90304 | -60.01722 | 29826 ft | 478 kts | 130° |
| 2026-05-03 21:38 | -33.92148 | -59.98424 | 29279 ft | 472 kts | 130° |
| 2026-05-03 21:38 | -33.93971 | -59.95157 | 28723 ft | 466 kts | 129° |
| 2026-05-03 21:38 | -33.95767 | -59.91936 | 28180 ft | 461 kts | 129° |
| 2026-05-03 21:39 | -33.97544 | -59.88746 | 27642 ft | 456 kts | 129° |
| 2026-05-03 21:39 | -33.99299 | -59.85590 | 27118 ft | 451 kts | 129° |
| 2026-05-03 21:39 | -34.01038 | -59.82464 | 26584 ft | 447 kts | 129° |
| 2026-05-03 21:39 | -34.02762 | -59.79361 | 26056 ft | 444 kts | 129° |
| 2026-05-03 21:40 | -34.04475 | -59.76283 | 25537 ft | 440 kts | 129° |
| 2026-05-03 21:40 | -34.06173 | -59.73231 | 25016 ft | 437 kts | 129° |
| 2026-05-03 21:40 | -34.07857 | -59.70189 | 24461 ft | 435 kts | 128° |
| 2026-05-03 21:40 | -34.09528 | -59.67166 | 23956 ft | 432 kts | 129° |
| 2026-05-03 21:41 | -34.11200 | -59.64161 | 23434 ft | 429 kts | 129° |
| 2026-05-03 21:41 | -34.12856 | -59.61180 | 22908 ft | 425 kts | 128° |
| 2026-05-03 21:41 | -34.14487 | -59.58229 | 22402 ft | 421 kts | 128° |
| 2026-05-03 21:41 | -34.16098 | -59.55303 | 21888 ft | 416 kts | 128° |
| 2026-05-03 21:42 | -34.17695 | -59.52406 | 21394 ft | 413 kts | 128° |
| 2026-05-03 21:42 | -34.19269 | -59.49530 | 20894 ft | 409 kts | 128° |
| 2026-05-03 21:42 | -34.20792 | -59.46646 | 20517 ft | 410 kts | 122° |
| 2026-05-03 21:42 | -34.22149 | -59.43601 | 20211 ft | 411 kts | 122° |
| 2026-05-03 21:43 | -34.23524 | -59.40558 | 19652 ft | 414 kts | 122° |
| 2026-05-03 21:43 | -34.24884 | -59.37470 | 18883 ft | 419 kts | 121° |
| 2026-05-03 21:43 | -34.26230 | -59.34319 | 18043 ft | 423 kts | 120° |
| 2026-05-03 21:43 | -34.27550 | -59.31161 | 17127 ft | 419 kts | 120° |
| 2026-05-03 21:44 | -34.28834 | -59.28050 | 16557 ft | 406 kts | 119° |
| 2026-05-03 21:44 | -34.30065 | -59.25053 | 16274 ft | 391 kts | 119° |
| 2026-05-03 21:44 | -34.31253 | -59.22154 | 16019 ft | 390 kts | 119° |
| 2026-05-03 21:44 | -34.32482 | -59.19171 | 15706 ft | 391 kts | 119° |
| 2026-05-03 21:45 | -34.33684 | -59.16248 | 15270 ft | 394 kts | 118° |
| 2026-05-03 21:45 | -34.34907 | -59.13266 | 14663 ft | 398 kts | 118° |
| 2026-05-03 21:45 | -34.36139 | -59.10253 | 13888 ft | 399 kts | 118° |
| 2026-05-03 21:45 | -34.37361 | -59.07264 | 13155 ft | 392 kts | 118° |
| 2026-05-03 21:46 | -34.38549 | -59.04368 | 12760 ft | 375 kts | 118° |
| 2026-05-03 21:46 | -34.39694 | -59.01602 | 12530 ft | 362 kts | 118° |
| 2026-05-03 21:46 | -34.40805 | -58.98918 | 12432 ft | 351 kts | 118° |
| 2026-05-03 21:46 | -34.41867 | -58.96336 | 12267 ft | 334 kts | 118° |
| 2026-05-03 21:47 | -34.42882 | -58.93857 | 11882 ft | 325 kts | 118° |
| 2026-05-03 21:47 | -34.43880 | -58.91412 | 11333 ft | 322 kts | 118° |
| 2026-05-03 21:47 | -34.44868 | -58.88990 | 10776 ft | 320 kts | 118° |
| 2026-05-03 21:47 | -34.45847 | -58.86588 | 10350 ft | 313 kts | 117° |
| 2026-05-03 21:48 | -34.46781 | -58.84289 | 10196 ft | 296 kts | 117° |
| 2026-05-03 21:48 | -34.47666 | -58.82109 | 9972 ft | 283 kts | 117° |
| 2026-05-03 21:48 | -34.48525 | -58.79995 | 9627 ft | 276 kts | 117° |
| 2026-05-03 21:48 | -34.49386 | -58.77876 | 9517 ft | 283 kts | 117° |
| 2026-05-03 21:49 | -34.50254 | -58.75740 | 9351 ft | 280 kts | 117° |
| 2026-05-03 21:49 | -34.51109 | -58.73633 | 9055 ft | 278 kts | 117° |
| 2026-05-03 21:49 | -34.51959 | -58.71537 | 8731 ft | 276 kts | 117° |
| 2026-05-03 21:49 | -34.52804 | -58.69451 | 8406 ft | 274 kts | 117° |
| 2026-05-03 21:50 | -34.53642 | -58.67383 | 8094 ft | 272 kts | 117° |
| 2026-05-03 21:50 | -34.54473 | -58.65327 | 7771 ft | 271 kts | 117° |
| 2026-05-03 21:50 | -34.55303 | -58.63283 | 7501 ft | 267 kts | 117° |
| 2026-05-03 21:50 | -34.56123 | -58.61262 | 7392 ft | 269 kts | 117° |
| 2026-05-03 21:51 | -34.56948 | -58.59222 | 7271 ft | 269 kts | 116° |
| 2026-05-03 21:51 | -34.57768 | -58.57191 | 7130 ft | 266 kts | 116° |
| 2026-05-03 21:51 | -34.58565 | -58.55215 | 7039 ft | 256 kts | 116° |
| 2026-05-03 21:51 | -34.59331 | -58.53314 | 6945 ft | 246 kts | 116° |
| 2026-05-03 21:52 | -34.60072 | -58.51465 | 6714 ft | 243 kts | 116° |
| 2026-05-03 21:52 | -34.60807 | -58.49632 | 6443 ft | 241 kts | 116° |
| 2026-05-03 21:52 | -34.61542 | -58.47805 | 6138 ft | 239 kts | 116° |
| 2026-05-03 21:52 | -34.62271 | -58.45990 | 5815 ft | 239 kts | 116° |
| 2026-05-03 21:53 | -34.63000 | -58.44187 | 5528 ft | 237 kts | 116° |
| 2026-05-03 21:53 | -34.63728 | -58.42388 | 5222 ft | 237 kts | 116° |
| 2026-05-03 21:53 | -34.64449 | -58.40599 | 4962 ft | 235 kts | 115° |
| 2026-05-03 21:53 | -34.65151 | -58.38845 | 4710 ft | 231 kts | 115° |
| 2026-05-03 21:54 | -34.65839 | -58.37126 | 4614 ft | 220 kts | 115° |
| 2026-05-03 21:54 | -34.66484 | -58.35515 | 4509 ft | 207 kts | 115° |
| 2026-05-03 21:54 | -34.67116 | -58.33940 | 4135 ft | 208 kts | 114° |
| 2026-05-03 21:54 | -34.67751 | -58.32362 | 3795 ft | 207 kts | 113° |
| 2026-05-03 21:55 | -34.68379 | -58.30798 | 3487 ft | 205 kts | 113° |
| 2026-05-03 21:55 | -34.69003 | -58.29244 | 3136 ft | 204 kts | 113° |
| 2026-05-03 21:55 | -34.69604 | -58.27696 | 2811 ft | 201 kts | 109° |
| 2026-05-03 21:55 | -34.69758 | -58.26083 | 2584 ft | 192 kts | 69° |
| 2026-05-03 21:56 | -34.69082 | -58.24762 | 2893 ft | 180 kts | 38° |
| 2026-05-03 21:56 | -34.68084 | -58.24009 | 2980 ft | 164 kts | 15° |
| 2026-05-03 21:56 | -34.66979 | -58.23799 | 2993 ft | 156 kts | 356° |
| 2026-05-03 21:56 | -34.65973 | -58.24009 | 2998 ft | 142 kts | 334° |
| 2026-05-03 21:57 | -34.65312 | -58.24751 | 2992 ft | 125 kts | 306° |
| 2026-05-03 21:57 | -34.64851 | -58.25615 | 2898 ft | 120 kts | 308° |
| 2026-05-03 21:57 | -34.64382 | -58.26448 | 2588 ft | 120 kts | 309° |
| 2026-05-03 21:57 | -34.63901 | -58.27289 | 2224 ft | 123 kts | 310° |
| 2026-05-03 21:58 | -34.63413 | -58.28148 | 1857 ft | 125 kts | 310° |
| 2026-05-03 21:58 | -34.62930 | -58.29009 | 1631 ft | 122 kts | 309° |
| 2026-05-03 21:58 | -34.62449 | -58.29872 | 1695 ft | 127 kts | 309° |
| 2026-05-03 21:58 | -34.61955 | -58.30759 | 1700 ft | 128 kts | 310° |
| 2026-05-03 21:59 | -34.61460 | -58.31652 | 1699 ft | 127 kts | 310° |
| 2026-05-03 21:59 | -34.60971 | -58.32529 | 1631 ft | 123 kts | 309° |
| 2026-05-03 21:59 | -34.60492 | -58.33386 | 1349 ft | 124 kts | 310° |
| 2026-05-03 21:59 | -34.60166 | -58.33966 | 1120 ft | 126 kts | 310° |
| 2026-05-03 22:00 | -34.59681 | -58.34828 | 938 ft | 114 kts | 308° |
| 2026-05-03 22:00 | -34.59086 | -58.35920 | 862 ft | 126 kts | 307° |
| 2026-05-03 22:00 | -34.58613 | -58.36789 | 777 ft | 124 kts | 308° |
| 2026-05-03 22:00 | -34.58119 | -58.37640 | 645 ft | 126 kts | 307° |
| 2026-05-03 22:01 | -34.57622 | -58.38545 | 465 ft | 127 kts | 308° |
| 2026-05-03 22:01 | -34.57136 | -58.39412 | 307 ft | 123 kts | 308° |
| 2026-05-03 22:01 | -34.56657 | -58.40270 | 145 ft | 123 kts | 306° |
| 2026-05-03 22:01 | -34.56173 | -58.41124 | 28 ft | 114 kts | 305° |
| 2026-05-03 22:02 | -34.55892 | -58.41627 | 25 ft | 40 kts | 303° |
| 2026-05-03 22:02 | -34.55773 | -58.41844 | 27 ft | 19 kts | 304° |
| 2026-05-03 22:02 | -34.55699 | -58.41892 | 27 ft | 8 kts | 24° |
| 2026-05-03 22:02 | -34.55684 | -58.41857 | 27 ft | 8 kts | 84° |
| 2026-05-03 22:03 | -34.55708 | -58.41790 | 29 ft | 11 kts | 119° |
| 2026-05-03 22:03 | -34.55726 | -58.41758 | 29 ft | 2 kts | 124° |
| 2026-05-03 22:03 | -34.55746 | -58.41721 | 26 ft | 6 kts | 124° |
| 2026-05-03 22:03 | -34.55756 | -58.41701 | 27 ft | 0 kts | 119° |
| 2026-05-03 22:04 | -34.55768 | -58.41673 | 27 ft | 8 kts | 117° |
| 2026-05-03 22:05 | -34.55767 | -58.41590 | 26 ft | 11 kts | 42° |
| 2026-05-03 22:05 | -34.55726 | -58.41508 | 27 ft | 13 kts | 100° |
| 2026-05-03 22:05 | -34.55751 | -58.41442 | 27 ft | 7 kts | 116° |
| 2026-05-03 22:05 | -34.55743 | -58.41421 | 27 ft | 2 kts | 55° |
| 2026-05-03 22:06 | -34.55732 | -58.41409 | 27 ft | 3 kts | 33° |
| 2026-05-03 22:06 | -34.55726 | -58.41405 | 27 ft | 0 kts | 33° |